SARS/PRQ METAR and TAF weather

Enter ICAO airport designator
Station Type Date Time Source
SARS METAR 2021/06/25 09:22 UTC NOAA

SARS 250922Z 32002KT 0700 FG 05/05 Q1016


Station Type Date Time Source
SARS Decoded METAR 2021/06/25 09:22 UTC NOAA

Presidencia Roque Saenz Pena Aerodrome, Argentina (SARS) 26-49S 060-27W 92M
Jun 25, 2021 - 05:22 AM EDT / 2021.06.25 0922 UTC
Wind: from the NW (320 degrees) at 2 MPH (2 KT):0
Visibility: less than 1 mile:0
Weather: fog
Temperature: 41 F (5 C)
Dew Point: 41 F (5 C)
Relative Humidity: 100%
Pressure (altimeter): 30.00 in. Hg (1016 hPa)
ob: SARS 250922Z 32002KT 0700 FG 05/05 Q1016
cycle: 9

Station Type Date Time Source
SARS TAF UTC NOAA

Error!

Example: see airport list